createdAt,value
2018-10-05T00:01:26.108Z,14.27
2018-10-05T00:03:32.197Z,14.03
2018-10-05T00:05:35.836Z,20.40
2018-10-05T00:07:39.482Z,15.17
2018-10-05T00:09:43.342Z,16.77
2018-10-05T00:11:48.201Z,9.17
2018-10-05T00:13:51.859Z,11.30
2018-10-05T00:15:55.548Z,12.87
2018-10-05T00:17:59.167Z,17.77
2018-10-05T00:22:10.725Z,13.97
2018-10-05T00:24:14.323Z,13.07
2018-10-05T00:26:18.276Z,15.77
2018-10-05T00:28:21.941Z,9.53
2018-10-05T00:30:25.622Z,17.80
2018-10-05T00:32:29.284Z,12.20
2018-10-05T00:34:33.983Z,11.80
2018-10-05T00:36:37.708Z,10.93
2018-10-05T00:38:41.318Z,12.50
2018-10-05T00:40:46.395Z,14.47
2018-10-05T00:42:49.978Z,19.50
2018-10-05T00:44:53.602Z,15.70
2018-10-05T00:46:57.198Z,11.13
2018-10-05T00:49:01.780Z,15.37
2018-10-05T00:51:05.424Z,20.17
2018-10-05T00:53:09.048Z,11.80
2018-10-05T00:55:12.769Z,12.23
2018-10-05T00:57:16.957Z,11.87
2018-10-05T00:59:20.987Z,12.00
2018-10-05T01:01:24.595Z,13.23
2018-10-05T01:03:28.454Z,15.90
2018-10-05T01:05:32.085Z,14.53
2018-10-05T01:07:36.361Z,11.77
2018-10-05T01:09:40.940Z,16.07
2018-10-05T01:11:44.539Z,15.93
2018-10-05T01:13:48.118Z,13.70
2018-10-05T01:15:52.089Z,10.50
2018-10-05T01:17:55.666Z,10.33
2018-10-05T01:19:59.264Z,12.00
2018-10-05T01:22:02.905Z,16.67
2018-10-05T01:24:10.280Z,12.83
2018-10-05T01:26:13.913Z,12.37
2018-10-05T01:28:17.512Z,12.37
2018-10-05T01:30:21.071Z,17.90
2018-10-05T01:32:25.560Z,9.93
2018-10-05T01:34:29.058Z,21.10
2018-10-05T01:36:32.618Z,16.10
2018-10-05T01:38:39.998Z,11.10
2018-10-05T01:40:44.476Z,16.93
2018-10-05T01:42:48.026Z,14.10
2018-10-05T01:44:51.608Z,19.20
2018-10-05T01:46:58.944Z,11.90
2018-10-05T01:49:03.002Z,17.30
2018-10-05T01:51:06.642Z,11.40
2018-10-05T01:53:10.171Z,11.97
2018-10-05T01:55:13.829Z,14.53
2018-10-05T01:57:17.399Z,10.70
2018-10-05T01:59:20.907Z,11.17
2018-10-05T02:01:27.037Z,9.93
2018-10-05T02:03:30.694Z,12.40
2018-10-05T02:05:34.264Z,16.43
2018-10-05T02:07:37.845Z,9.70
2018-10-05T02:09:41.598Z,15.83
2018-10-05T02:11:45.194Z,12.73
2018-10-05T02:13:48.850Z,9.60
2018-10-05T02:15:53.628Z,9.83
2018-10-05T02:17:57.231Z,13.30
2018-10-05T02:20:00.787Z,11.27
2018-10-05T02:22:04.396Z,15.83
2018-10-05T02:24:08.035Z,9.03
2018-10-05T02:26:11.688Z,12.47
2018-10-05T02:28:16.249Z,15.63
2018-10-05T02:30:20.946Z,11.23
2018-10-05T02:32:24.527Z,14.33
2018-10-05T02:34:28.080Z,17.43
2018-10-05T02:36:31.750Z,10.67
2018-10-05T02:38:35.280Z,11.03
2018-10-05T02:40:38.877Z,11.93
2018-10-05T02:42:42.465Z,10.20
2018-10-05T02:44:46.140Z,14.53
2018-10-05T02:46:49.753Z,7.70
2018-10-05T02:48:53.522Z,11.17
2018-10-05T02:50:58.226Z,14.60
2018-10-05T02:53:02.951Z,11.40
2018-10-05T02:55:06.509Z,13.70
2018-10-05T02:57:10.090Z,14.30
2018-10-05T02:59:14.618Z,18.57
2018-10-05T03:01:29.700Z,13.53
2018-10-05T03:03:33.306Z,11.30
2018-10-05T03:05:36.895Z,17.23
2018-10-05T03:07:40.895Z,13.97
2018-10-05T03:09:46.163Z,10.13
2018-10-05T03:11:49.836Z,12.90
2018-10-05T03:13:53.583Z,16.13
2018-10-05T03:15:57.961Z,16.43
2018-10-05T03:18:01.590Z,11.70
2018-10-05T03:20:05.283Z,13.67
2018-10-05T03:22:08.947Z,8.87
2018-10-05T03:24:12.678Z,8.30
2018-10-05T03:26:16.308Z,11.70
2018-10-05T03:28:20.159Z,14.83
2018-10-05T03:30:24.680Z,8.83
2018-10-05T03:32:28.348Z,11.07
2018-10-05T03:34:32.081Z,12.60
2018-10-05T03:36:35.677Z,16.00
2018-10-05T03:38:39.701Z,8.70
2018-10-05T03:40:43.382Z,10.53
2018-10-05T03:42:47.442Z,13.33
2018-10-05T03:44:51.211Z,17.13
2018-10-05T03:46:54.824Z,8.87
2018-10-05T03:48:58.554Z,9.70
2018-10-05T03:51:02.358Z,7.17
2018-10-05T03:53:06.501Z,17.40
2018-10-05T03:55:10.322Z,14.53
2018-10-05T03:57:13.964Z,9.03
2018-10-05T03:59:17.578Z,13.10
2018-10-05T04:01:21.305Z,11.43
2018-10-05T04:03:25.356Z,10.33
2018-10-05T04:05:29.057Z,10.83
2018-10-05T04:07:33.717Z,15.30
2018-10-05T04:09:37.342Z,12.63
2018-10-05T04:11:41.339Z,12.73
2018-10-05T04:13:45.003Z,9.97
2018-10-05T04:15:49.142Z,9.23
2018-10-05T04:17:52.784Z,9.97
2018-10-05T04:19:56.469Z,10.00
2018-10-05T04:22:00.707Z,8.60
2018-10-05T04:24:04.317Z,9.73
2018-10-05T04:26:07.970Z,12.57
2018-10-05T04:28:12.244Z,9.87
2018-10-05T04:30:16.349Z,10.50
2018-10-05T04:32:20.764Z,13.03
2018-10-05T04:34:24.465Z,14.00
2018-10-05T04:36:28.499Z,11.73
2018-10-05T04:38:32.177Z,11.87
2018-10-05T04:40:35.824Z,11.73
2018-10-05T04:42:39.519Z,10.57
2018-10-05T04:44:43.633Z,13.93
2018-10-05T04:46:47.277Z,11.37
2018-10-05T04:48:51.006Z,15.30
2018-10-05T04:50:54.599Z,10.23
2018-10-05T04:52:59.684Z,9.93
2018-10-05T04:55:03.305Z,12.33
2018-10-05T04:57:11.220Z,8.13
2018-10-05T04:59:14.829Z,9.90
2018-10-05T05:01:18.471Z,15.40
2018-10-05T05:03:22.179Z,15.83
2018-10-05T05:05:25.809Z,14.43
2018-10-05T05:07:31.278Z,10.90
2018-10-05T05:09:34.883Z,9.83
2018-10-05T05:11:39.517Z,11.70
2018-10-05T05:13:43.114Z,12.93
2018-10-05T05:15:51.372Z,12.40
2018-10-05T05:17:55.004Z,13.10
2018-10-05T05:19:58.881Z,13.60
2018-10-05T05:22:02.621Z,11.73
2018-10-05T05:24:08.743Z,10.13
2018-10-05T05:26:12.373Z,17.47
2018-10-05T05:28:16.006Z,13.20
2018-10-05T05:30:21.087Z,14.73
2018-10-05T05:32:24.743Z,14.43
2018-10-05T05:34:28.386Z,11.97
2018-10-05T05:36:32.004Z,16.83
2018-10-05T05:38:35.981Z,14.80
2018-10-05T05:40:40.663Z,19.53
2018-10-05T05:42:44.350Z,21.47
2018-10-05T05:44:47.949Z,21.67
2018-10-05T05:46:52.189Z,13.80
2018-10-05T05:48:58.979Z,12.60
2018-10-05T05:51:02.688Z,13.60
2018-10-05T05:53:06.953Z,15.40
2018-10-05T05:55:10.600Z,17.40
2018-10-05T05:57:14.355Z,14.57
2018-10-05T05:59:18.007Z,18.10
2018-10-05T06:01:21.569Z,26.63
2018-10-05T06:03:25.188Z,17.10
2018-10-05T06:05:28.867Z,16.33
2018-10-05T06:07:32.496Z,45.13
2018-10-05T06:09:36.168Z,37.40
2018-10-05T06:11:40.597Z,18.63
2018-10-05T06:13:44.483Z,20.40
2018-10-05T06:15:48.595Z,16.17
2018-10-05T06:17:52.482Z,19.03
2018-10-05T06:19:56.474Z,14.80
2018-10-05T06:22:00.283Z,15.13
2018-10-05T06:24:03.951Z,27.03
2018-10-05T06:26:07.679Z,13.80
2018-10-05T06:28:15.351Z,23.27
2018-10-05T06:30:19.250Z,16.00
2018-10-05T06:32:24.219Z,16.10
2018-10-05T06:34:28.388Z,17.40
2018-10-05T06:36:32.856Z,25.43
2018-10-05T06:38:36.774Z,20.53
2018-10-05T06:40:40.455Z,14.67
2018-10-05T06:42:44.132Z,14.90
2018-10-05T06:44:47.998Z,13.33
2018-10-05T06:46:52.129Z,24.27
2018-10-05T06:48:55.791Z,12.20
2018-10-05T06:50:59.427Z,18.90
2018-10-05T06:53:03.095Z,11.83
2018-10-05T06:55:06.836Z,15.37
2018-10-05T06:57:10.574Z,11.53
2018-10-05T06:59:14.753Z,19.27
2018-10-05T07:01:19.034Z,17.57
2018-10-05T07:03:22.693Z,17.23
2018-10-05T07:05:26.390Z,17.83
2018-10-05T07:07:30.274Z,18.33
2018-10-05T07:09:33.927Z,27.30
2018-10-05T07:11:38.658Z,27.97
2018-10-05T07:13:42.367Z,22.03
2018-10-05T07:15:46.341Z,22.30
2018-10-05T07:17:50.178Z,25.73
2018-10-05T07:19:53.823Z,22.33
2018-10-05T07:21:58.183Z,20.73
2018-10-05T07:24:02.152Z,18.77
2018-10-05T07:26:06.201Z,22.80
2018-10-05T07:28:10.311Z,12.07
2018-10-05T07:30:14.862Z,18.80
2018-10-05T07:32:18.859Z,16.23
2018-10-05T07:34:22.724Z,15.33
2018-10-05T07:36:26.907Z,19.07
2018-10-05T07:38:30.687Z,15.20
2018-10-05T07:40:34.457Z,24.87
2018-10-05T07:42:38.430Z,17.53
2018-10-05T07:44:42.438Z,16.43
2018-10-05T07:46:46.095Z,22.07
2018-10-05T07:48:49.762Z,18.90
2018-10-05T07:50:53.498Z,15.87
2018-10-05T07:52:57.184Z,18.23
2018-10-05T07:55:01.366Z,17.97
2018-10-05T07:57:05.011Z,22.03
2018-10-05T07:59:13.258Z,14.37
2018-10-05T08:01:17.052Z,18.50
2018-10-05T08:03:21.934Z,15.63
2018-10-05T08:05:25.613Z,20.47
2018-10-05T08:07:30.024Z,11.60
2018-10-05T08:09:33.777Z,11.63
2018-10-05T08:11:37.536Z,16.30
2018-10-05T08:13:41.555Z,22.67
2018-10-05T08:15:45.316Z,16.27
2018-10-05T08:17:48.928Z,15.80
2018-10-05T08:19:52.914Z,15.53
2018-10-05T08:21:57.562Z,13.10
2018-10-05T08:24:01.605Z,13.20
2018-10-05T08:26:05.408Z,13.60
2018-10-05T08:28:09.192Z,18.57
2018-10-05T08:30:12.961Z,17.13
2018-10-05T08:32:16.627Z,12.30
2018-10-05T08:34:20.314Z,14.20
2018-10-05T08:36:23.914Z,16.17
2018-10-05T08:38:27.545Z,20.10
2018-10-05T08:40:32.052Z,19.70
2018-10-05T08:42:35.887Z,20.47
2018-10-05T08:44:39.624Z,15.30
2018-10-05T08:46:43.637Z,19.07
2018-10-05T08:48:47.641Z,17.73
2018-10-05T08:50:51.772Z,14.30
2018-10-05T08:52:55.511Z,18.97
2018-10-05T08:54:59.308Z,13.60
2018-10-05T08:57:03.012Z,13.93
2018-10-05T08:59:07.199Z,10.73
2018-10-05T09:01:11.133Z,12.20
2018-10-05T09:03:15.070Z,20.57
2018-10-05T09:05:19.505Z,15.03
2018-10-05T09:07:23.411Z,11.10
2018-10-05T09:09:27.169Z,25.30
2018-10-05T09:11:31.431Z,16.17
2018-10-05T09:13:38.641Z,14.90
2018-10-05T09:15:42.309Z,15.73
2018-10-05T09:17:46.029Z,14.50
2018-10-05T09:19:49.686Z,14.60
2018-10-05T09:21:53.662Z,11.13
2018-10-05T09:23:57.314Z,12.97
2018-10-05T09:26:01.219Z,17.20
2018-10-05T09:28:05.599Z,12.13
2018-10-05T09:30:09.185Z,13.20
2018-10-05T09:32:12.994Z,11.03
2018-10-05T09:34:16.702Z,17.00
2018-10-05T09:36:20.431Z,14.20
2018-10-05T09:38:24.301Z,9.87
2018-10-05T09:40:27.936Z,10.43
2018-10-05T09:42:31.876Z,9.47
2018-10-05T09:44:35.491Z,10.23
2018-10-05T09:46:39.336Z,14.07
2018-10-05T09:48:42.987Z,10.90
2018-10-05T09:50:46.750Z,12.23
2018-10-05T09:52:50.488Z,11.10
2018-10-05T09:54:54.116Z,12.13
2018-10-05T09:56:58.057Z,10.50
2018-10-05T09:59:01.878Z,15.20
2018-10-05T10:01:10.737Z,10.30
2018-10-05T10:03:19.938Z,9.80
2018-10-05T10:05:24.137Z,9.60
2018-10-05T10:07:27.684Z,11.70
2018-10-05T10:09:32.647Z,9.40
2018-10-05T10:11:36.573Z,12.97
2018-10-05T10:13:41.318Z,7.43
2018-10-05T10:15:45.952Z,8.43
2018-10-05T10:17:49.481Z,10.00
2018-10-05T10:19:53.156Z,6.23
2018-10-05T10:21:56.822Z,10.90
2018-10-05T10:24:00.447Z,12.20
2018-10-05T10:26:04.197Z,7.20
2018-10-05T10:28:08.213Z,6.77
2018-10-05T10:30:11.860Z,8.93
2018-10-05T10:32:15.798Z,9.93
2018-10-05T10:34:19.411Z,12.40
2018-10-05T10:36:23.066Z,8.13
2018-10-05T10:38:26.680Z,8.30
2018-10-05T10:40:30.321Z,7.50
2018-10-05T10:42:34.078Z,7.43
2018-10-05T10:44:37.825Z,11.67
2018-10-05T10:46:41.467Z,7.23
2018-10-05T10:48:45.105Z,7.13
2018-10-05T10:50:48.745Z,6.13
2018-10-05T10:52:52.411Z,6.53
2018-10-05T10:54:55.914Z,7.53
2018-10-05T10:56:59.745Z,8.70
2018-10-05T10:59:03.761Z,5.10
2018-10-05T11:01:07.680Z,7.33
2018-10-05T11:03:11.869Z,6.10
2018-10-05T11:05:15.563Z,7.27
2018-10-05T11:07:19.235Z,5.67
2018-10-05T11:09:22.866Z,7.00
2018-10-05T11:11:26.454Z,9.90
2018-10-05T11:13:30.114Z,6.50
2018-10-05T11:15:33.811Z,6.30
2018-10-05T11:17:37.392Z,9.37
2018-10-05T11:19:41.020Z,5.33
2018-10-05T11:21:44.728Z,8.87
2018-10-05T11:23:50.068Z,7.70
2018-10-05T11:25:53.756Z,9.20
2018-10-05T11:27:57.337Z,14.87
2018-10-05T11:30:01.042Z,4.50
2018-10-05T11:32:04.663Z,5.00
2018-10-05T11:34:08.262Z,6.73
2018-10-05T11:36:11.904Z,5.63
2018-10-05T11:38:15.500Z,6.00
2018-10-05T11:40:21.050Z,8.77
2018-10-05T11:42:25.009Z,7.33
2018-10-05T11:44:28.688Z,6.77
2018-10-05T11:46:32.386Z,6.00
2018-10-05T11:48:35.918Z,4.60
2018-10-05T11:50:39.762Z,7.17
2018-10-05T11:52:43.368Z,3.27
2018-10-05T11:54:47.100Z,12.50
2018-10-05T11:56:50.670Z,6.50
2018-10-05T11:58:54.330Z,6.40
2018-10-05T12:00:58.313Z,5.20
2018-10-05T12:03:01.864Z,10.03
2018-10-05T12:05:05.934Z,9.40
2018-10-05T12:07:09.714Z,6.83
2018-10-05T12:09:13.434Z,6.33
2018-10-05T12:11:17.219Z,8.87
2018-10-05T12:13:21.187Z,8.50
2018-10-05T12:15:25.066Z,8.37
2018-10-05T12:17:28.764Z,6.67
2018-10-05T12:19:32.505Z,9.80
2018-10-05T12:21:36.200Z,5.80
2018-10-05T12:23:39.798Z,5.10
2018-10-05T12:25:43.716Z,5.97
2018-10-05T12:27:47.440Z,6.10
2018-10-05T12:29:51.093Z,2.73
2018-10-05T12:31:55.266Z,4.00
2018-10-05T12:33:58.951Z,9.37
2018-10-05T12:36:03.258Z,9.93
2018-10-05T12:38:07.053Z,8.13
2018-10-05T12:40:10.753Z,6.03
2018-10-05T12:42:14.286Z,4.87
2018-10-05T12:44:17.854Z,5.33
2018-10-05T12:46:21.458Z,7.37
2018-10-05T12:48:25.048Z,4.37
2018-10-05T12:50:28.676Z,5.90
2018-10-05T12:52:32.256Z,7.33
2018-10-05T12:54:35.863Z,5.97
2018-10-05T12:56:39.413Z,8.00
2018-10-05T12:58:43.098Z,5.10
2018-10-05T13:00:47.010Z,10.03
2018-10-05T13:02:50.768Z,5.60
2018-10-05T13:04:55.780Z,6.23
2018-10-05T13:06:59.752Z,4.33
2018-10-05T13:09:04.363Z,4.30
2018-10-05T13:11:08.310Z,6.90
2018-10-05T13:13:12.176Z,4.80
2018-10-05T13:15:16.130Z,5.13
2018-10-05T13:17:20.150Z,4.63
2018-10-05T13:19:23.800Z,8.07
2018-10-05T13:21:27.407Z,5.90
2018-10-05T13:23:31.042Z,6.93
2018-10-05T13:25:34.791Z,6.53
2018-10-05T13:27:39.147Z,4.47
2018-10-05T13:29:42.814Z,6.37
2018-10-05T13:31:46.709Z,6.93
2018-10-05T13:33:50.535Z,5.60
2018-10-05T13:35:56.401Z,7.63
2018-10-05T13:38:00.352Z,5.40
2018-10-05T13:40:04.230Z,8.10
2018-10-05T13:42:07.983Z,4.87
2018-10-05T13:44:11.816Z,7.00
2018-10-05T13:46:15.490Z,5.00
2018-10-05T13:48:19.590Z,5.33
2018-10-05T13:50:23.550Z,3.63
2018-10-05T13:52:27.918Z,4.37
2018-10-05T13:54:31.577Z,5.87
2018-10-05T13:56:35.854Z,4.70
2018-10-05T13:58:39.670Z,7.60
2018-10-05T14:00:43.575Z,6.57
2018-10-05T14:02:47.557Z,9.40
2018-10-05T14:04:51.389Z,6.40
2018-10-05T14:06:55.389Z,5.27
2018-10-05T14:08:59.437Z,5.83
2018-10-05T14:11:03.410Z,4.27
2018-10-05T14:13:07.389Z,3.80
2018-10-05T14:15:11.075Z,5.53
2018-10-05T14:17:15.330Z,4.50
2018-10-05T14:19:19.471Z,4.23
2018-10-05T14:21:23.345Z,4.27
2018-10-05T14:23:27.306Z,4.77
2018-10-05T14:25:31.210Z,4.80
2018-10-05T14:27:35.127Z,6.53
2018-10-05T14:29:38.871Z,5.73
2018-10-05T14:31:42.807Z,4.23
2018-10-05T14:33:46.744Z,4.30
2018-10-05T14:35:50.663Z,3.80
2018-10-05T14:37:54.646Z,5.80
2018-10-05T14:39:58.987Z,3.53
2018-10-05T14:42:02.951Z,3.80
2018-10-05T14:44:06.866Z,5.03
2018-10-05T14:46:10.957Z,7.40
2018-10-05T14:48:14.714Z,3.53
2018-10-05T14:50:18.439Z,4.80
2018-10-05T14:52:25.228Z,5.83
2018-10-05T14:54:29.169Z,5.60
2018-10-05T14:56:32.865Z,6.77
2018-10-05T14:58:36.686Z,7.30
2018-10-05T15:00:40.534Z,9.43
2018-10-05T15:02:44.648Z,5.67
2018-10-05T15:04:48.773Z,7.27
2018-10-05T15:06:53.117Z,5.53
2018-10-05T15:08:56.887Z,7.20
2018-10-05T15:11:00.701Z,4.83
2018-10-05T15:13:04.389Z,3.73
2018-10-05T15:15:08.346Z,5.43
2018-10-05T15:17:12.114Z,4.80
2018-10-05T15:19:15.898Z,8.43
2018-10-05T15:21:19.855Z,3.50
2018-10-05T15:23:23.764Z,3.70
2018-10-05T15:25:27.340Z,4.27
2018-10-05T15:27:31.261Z,7.40
2018-10-05T15:29:35.204Z,5.40
2018-10-05T15:31:38.868Z,5.87
2018-10-05T15:33:42.557Z,6.47
2018-10-05T15:35:46.368Z,4.93
2018-10-05T15:37:50.229Z,4.33
2018-10-05T15:39:53.964Z,5.00
2018-10-05T15:41:57.622Z,4.80
2018-10-05T15:44:01.407Z,3.80
2018-10-05T15:46:10.931Z,4.80
2018-10-05T15:48:14.930Z,5.80
2018-10-05T15:50:19.141Z,4.70
2018-10-05T15:52:23.008Z,5.23
2018-10-05T15:54:26.657Z,4.20
2018-10-05T15:56:30.368Z,4.00
2018-10-05T15:58:34.225Z,4.50
2018-10-05T16:00:38.044Z,5.37
2018-10-05T16:02:41.881Z,5.17
2018-10-05T16:04:45.591Z,6.30
2018-10-05T16:06:49.723Z,4.90
2018-10-05T16:08:53.740Z,7.30
2018-10-05T16:10:57.535Z,3.87
2018-10-05T16:13:02.412Z,4.10
2018-10-05T16:15:06.837Z,5.87
2018-10-05T16:17:10.648Z,6.80
2018-10-05T16:19:14.558Z,5.30
2018-10-05T16:21:18.365Z,4.60
2018-10-05T16:23:22.190Z,19.60
2018-10-05T16:25:25.871Z,18.70
2018-10-05T16:27:31.184Z,5.93
2018-10-05T16:29:35.653Z,6.70
2018-10-05T16:31:39.448Z,7.57
2018-10-05T16:33:43.408Z,8.10
2018-10-05T16:35:47.319Z,6.20
2018-10-05T16:37:51.189Z,4.50
2018-10-05T16:39:55.123Z,7.03
2018-10-05T16:42:00.023Z,6.43
2018-10-05T16:44:06.756Z,9.60
2018-10-05T16:46:10.616Z,5.50
2018-10-05T16:48:14.286Z,9.03
2018-10-05T16:50:18.485Z,7.70
2018-10-05T16:52:22.135Z,9.37
2018-10-05T16:54:25.860Z,6.90
2018-10-05T16:56:29.725Z,4.50
2018-10-05T16:58:33.724Z,7.87
2018-10-05T17:00:37.286Z,6.20
2018-10-05T17:02:41.444Z,7.10
2018-10-05T17:04:45.768Z,7.83
2018-10-05T17:06:49.443Z,7.20
2018-10-05T17:08:56.434Z,7.57
2018-10-05T17:11:00.727Z,10.50
2018-10-05T17:13:05.853Z,7.30
2018-10-05T17:15:09.601Z,5.50
2018-10-05T17:17:14.055Z,5.50
2018-10-05T17:19:17.865Z,5.73
2018-10-05T17:21:21.845Z,4.77
2018-10-05T17:23:25.817Z,4.37
2018-10-05T17:25:29.818Z,5.77
2018-10-05T17:27:33.723Z,7.60
2018-10-05T17:29:37.656Z,5.90
2018-10-05T17:31:41.658Z,9.30
2018-10-05T17:33:45.638Z,7.30
2018-10-05T17:35:49.642Z,5.50
2018-10-05T17:37:53.329Z,6.80
2018-10-05T17:39:56.992Z,9.53
2018-10-05T17:42:00.862Z,6.00
2018-10-05T17:44:04.804Z,4.80
2018-10-05T17:46:08.536Z,17.17
2018-10-05T17:48:12.608Z,19.07
2018-10-05T17:50:16.559Z,11.87
2018-10-05T17:52:20.323Z,25.77
2018-10-05T17:54:24.256Z,19.03
2018-10-05T17:56:28.614Z,14.03
2018-10-05T17:58:32.575Z,8.00
2018-10-05T18:00:36.488Z,7.20
2018-10-05T18:02:40.339Z,6.67
2018-10-05T18:04:44.068Z,9.00
2018-10-05T18:06:47.735Z,9.77
2018-10-05T18:08:51.659Z,8.63
2018-10-05T18:10:55.448Z,9.90
2018-10-05T18:12:59.322Z,9.70
2018-10-05T18:15:03.221Z,9.60
2018-10-05T18:17:07.241Z,9.60
2018-10-05T18:19:11.224Z,10.10
2018-10-05T18:21:15.199Z,9.83
2018-10-05T18:23:19.119Z,9.57
2018-10-05T18:25:23.099Z,12.10
2018-10-05T18:27:27.432Z,9.40
2018-10-05T18:29:32.500Z,13.23
2018-10-05T18:31:36.379Z,15.97
2018-10-05T18:33:40.438Z,9.30
2018-10-05T18:35:44.441Z,8.60
2018-10-05T18:37:48.120Z,10.90
2018-10-05T18:39:52.204Z,13.93
2018-10-05T18:41:56.119Z,11.80
2018-10-05T18:43:59.854Z,10.07
2018-10-05T18:46:03.526Z,7.13
2018-10-05T18:48:07.787Z,7.30
2018-10-05T18:50:11.659Z,13.73
2018-10-05T18:52:15.355Z,7.77
2018-10-05T18:54:20.661Z,10.83
2018-10-05T18:56:36.083Z,11.33
2018-10-05T18:58:40.079Z,13.37
2018-10-05T19:00:43.735Z,10.43
2018-10-05T19:02:48.015Z,12.40
2018-10-05T19:04:52.740Z,9.27
2018-10-05T19:06:56.767Z,11.70
2018-10-05T19:09:00.872Z,7.03
2018-10-05T19:11:05.301Z,8.60
2018-10-05T19:13:09.053Z,9.07
2018-10-05T19:15:12.966Z,12.30
2018-10-05T19:17:16.746Z,9.83
2018-10-05T19:19:20.444Z,11.20
2018-10-05T19:21:24.073Z,7.23
2018-10-05T19:23:28.252Z,8.23
2018-10-05T19:25:31.930Z,7.87
2018-10-05T19:27:36.210Z,9.80
2018-10-05T19:29:40.056Z,9.87
2018-10-05T19:31:43.747Z,10.13
2018-10-05T19:33:47.708Z,13.80
2018-10-05T19:35:51.678Z,12.27
2018-10-05T19:37:55.608Z,19.13
2018-10-05T19:39:59.344Z,16.50
2018-10-05T19:42:03.198Z,22.13
2018-10-05T19:44:07.333Z,12.63
2018-10-05T19:46:11.066Z,18.57
2018-10-05T19:48:15.485Z,15.70
2018-10-05T19:50:20.162Z,15.57
2018-10-05T19:52:23.839Z,17.10
2018-10-05T19:54:27.516Z,13.27
2018-10-05T19:56:31.214Z,15.87
2018-10-05T19:58:34.924Z,14.23
2018-10-05T20:00:39.205Z,14.10
2018-10-05T20:02:44.334Z,23.37
2018-10-05T20:04:48.312Z,19.43
2018-10-05T20:06:52.102Z,14.30
2018-10-05T20:08:55.865Z,16.67
2018-10-05T20:10:59.648Z,15.33
2018-10-05T20:13:03.965Z,13.43
2018-10-05T20:15:07.719Z,15.13
2018-10-05T20:17:11.573Z,15.93
2018-10-05T20:19:15.418Z,16.70
2018-10-05T20:21:19.238Z,17.77
2018-10-05T20:23:23.283Z,15.63
2018-10-05T20:25:27.023Z,13.80
2018-10-05T20:27:30.868Z,17.90
2018-10-05T20:29:34.672Z,15.50
2018-10-05T20:31:38.447Z,22.90
2018-10-05T20:33:42.345Z,12.67
2018-10-05T20:35:46.338Z,17.80
2018-10-05T20:37:50.350Z,16.63
2018-10-05T20:39:54.096Z,11.30
2018-10-05T20:41:57.847Z,12.43
2018-10-05T20:44:02.059Z,18.73
2018-10-05T20:46:06.346Z,16.77
2018-10-05T20:48:10.195Z,17.93
2018-10-05T20:50:14.007Z,16.37
2018-10-05T20:52:17.948Z,18.00
2018-10-05T20:54:21.988Z,18.50
2018-10-05T20:56:35.063Z,20.20
2018-10-05T20:58:40.161Z,24.30
2018-10-05T21:00:47.500Z,24.70
2018-10-05T21:02:53.819Z,28.20
2018-10-05T21:04:57.476Z,22.53
2018-10-05T21:07:01.916Z,19.13
2018-10-05T21:09:08.945Z,18.20
2018-10-05T21:11:18.953Z,21.83
2018-10-05T21:13:28.126Z,20.93
2018-10-05T21:15:33.164Z,14.27
2018-10-05T21:17:40.865Z,20.63
2018-10-05T21:19:51.214Z,21.63
2018-10-05T21:22:00.339Z,22.20
2018-10-05T21:24:05.605Z,20.60
2018-10-05T21:26:12.079Z,17.70
2018-10-05T21:28:22.496Z,17.43
2018-10-05T21:30:27.163Z,21.27
2018-10-05T21:32:31.568Z,20.40
2018-10-05T21:34:36.073Z,21.50
2018-10-05T21:36:40.130Z,20.83
2018-10-05T21:38:45.288Z,20.50
2018-10-05T21:40:49.731Z,21.20
2018-10-05T21:42:53.575Z,21.97
2018-10-05T21:44:59.589Z,24.47
2018-10-05T21:47:04.736Z,20.10
2018-10-05T21:49:12.215Z,16.90
2018-10-05T21:51:18.097Z,17.70
2018-10-05T21:53:25.148Z,19.43
2018-10-05T21:55:34.720Z,17.90
2018-10-05T21:57:43.104Z,13.37
2018-10-05T21:59:51.216Z,13.90
2018-10-05T22:02:01.714Z,24.03
2018-10-05T22:04:09.641Z,20.87
2018-10-05T22:06:13.834Z,15.80
2018-10-05T22:08:23.525Z,17.37
2018-10-05T22:10:28.251Z,18.03
2018-10-05T22:12:33.230Z,16.90
2018-10-05T22:14:40.208Z,14.43
2018-10-05T22:16:45.870Z,17.83
2018-10-05T22:18:55.655Z,15.20
2018-10-05T22:21:05.200Z,16.37
2018-10-05T22:23:09.705Z,17.87
2018-10-05T22:25:13.630Z,17.43
2018-10-05T22:27:17.571Z,20.60
2018-10-05T22:29:21.337Z,20.40
2018-10-05T22:31:25.618Z,20.60
2018-10-05T22:33:30.486Z,19.93
2018-10-05T22:35:35.361Z,20.43
2018-10-05T22:37:39.575Z,17.83
2018-10-05T22:39:44.019Z,17.17
2018-10-05T22:41:48.874Z,15.87
2018-10-05T22:43:53.823Z,12.50
2018-10-05T22:45:57.440Z,16.43
2018-10-05T22:48:01.485Z,12.80
2018-10-05T22:50:05.730Z,12.70
2018-10-05T22:52:09.359Z,24.60
2018-10-05T22:54:13.096Z,16.13
2018-10-05T22:56:16.779Z,15.33
2018-10-05T22:58:20.428Z,14.27
2018-10-05T23:00:24.123Z,15.17
2018-10-05T23:02:27.832Z,17.00
2018-10-05T23:04:31.490Z,18.43
2018-10-05T23:06:35.222Z,15.50
2018-10-05T23:08:38.988Z,15.00
2018-10-05T23:10:42.708Z,15.43
2018-10-05T23:12:46.327Z,15.03
2018-10-05T23:14:50.170Z,13.30
2018-10-05T23:16:54.206Z,12.80
2018-10-05T23:18:59.347Z,10.10
2018-10-05T23:21:03.062Z,15.20
2018-10-05T23:23:07.218Z,11.80
2018-10-05T23:25:10.863Z,9.97
2018-10-05T23:27:14.591Z,14.70
2018-10-05T23:29:20.033Z,16.23
2018-10-05T23:31:23.723Z,12.73
2018-10-05T23:33:28.420Z,13.17
2018-10-05T23:35:32.091Z,12.87
2018-10-05T23:37:35.766Z,12.07
2018-10-05T23:39:39.844Z,10.73
2018-10-05T23:41:43.623Z,18.27
2018-10-05T23:43:48.167Z,13.47
2018-10-05T23:45:51.893Z,11.97
2018-10-05T23:47:55.888Z,13.33
2018-10-05T23:49:59.552Z,9.73
2018-10-05T23:52:19.136Z,15.37
2018-10-05T23:54:22.720Z,11.27
2018-10-05T23:56:26.549Z,10.93
2018-10-05T23:58:30.150Z,12.30
